Flight Track Log - Related Links

Times and Time Zones

All times are in EDT time to prevent confusion due to time zone crossing. See the UPS2506 flight status page for this flight to view local times or setup timezone preferences in your user account.

Time Position Orientation Groundspeed Altitude Reporting Facility
EDT Latitude Longitude Course Direction KTS MPH feet Rate Location/Type
Tue 04:12:32 PM 41.5300 -93.6336 163° South 172 198 2,100  Level Minneapolis Center
Tue 04:13:22 PM 41.4864 -93.6158 163° South 194 223 3,700 1,805 Climbing Minneapolis Center
Tue 04:14:25 PM 41.4542 -93.6928 241° Southwest 274 315 5,500 2,264 Climbing Minneapolis Center
Tue 04:19:49 PM 41.4507 -94.4401 267° West 431 496 18,300 2,322 Climbing FlightAware ADS-B
Tue 04:20:19 PM 41.4472 -94.5211 267° West 439 505 19,200 1,787 Climbing FlightAware ADS-B
Tue 04:20:36 PM 41.4458 -94.5522 267° West 442 509 19,700 2,000 Climbing FlightAware ADS-B
Tue 04:20:49 PM 41.4435 -94.6028 267° West 443 510 20,200 2,182 Climbing FlightAware ADS-B
Tue 04:21:20 PM 41.4398 -94.6847 267° West 445 512 21,300 1,808 Climbing FlightAware ADS-B
Tue 04:22:02 PM 41.4345 -94.8025 267° West 449 517 22,400 1,560 Climbing FlightAware ADS-B
Tue 04:23:00 PM 41.4269 -94.9654 266° West 464 534 23,900 1,568 Climbing FlightAware ADS-B
Tue 04:23:30 PM 41.4228 -95.0515 266° West 468 539 24,700 1,475 Climbing FlightAware ADS-B
Tue 04:24:01 PM 41.4186 -95.1400 266° West 473 544 25,400 1,325 Climbing FlightAware ADS-B
Tue 04:24:47 PM 41.4119 -95.2762 266° West 482 555 26,400 1,403 Climbing FlightAware ADS-B
Tue 04:25:18 PM 41.4072 -95.3681 266° West 481 554 27,200 1,839 Climbing FlightAware ADS-B
Tue 04:25:49 PM 41.4025 -95.4593 266° West 473 544 28,300 1,905 Climbing FlightAware ADS-B
Tue 04:26:21 PM 41.3978 -95.5508 266° West 468 539 29,200 1,742 Climbing FlightAware ADS-B
Tue 04:26:51 PM 41.3932 -95.6371 266° West 464 534 30,100 1,574 Climbing FlightAware ADS-B
Tue 04:27:22 PM 41.3886 -95.7234 266° West 461 531 30,800 1,377 Climbing FlightAware ADS-B
Tue 04:27:52 PM 41.3841 -95.8078 266° West 457 526 31,500 1,161 Climbing FlightAware ADS-B
Tue 04:28:24 PM 41.3792 -95.8962 266° West 458 527 32,000 476 Climbing FlightAware ADS-B
Tue 04:28:55 PM 41.3743 -95.9833 266° West 458 527 32,000  Level FlightAware ADS-B
Tue 04:29:25 PM 41.3694 -96.0689 266° West 456 525 32,000  Level FlightAware ADS-B
Tue 04:29:56 PM 41.3644 -96.1557 266° West 455 524 32,000  Level FlightAware ADS-B
Tue 04:30:27 PM 41.3594 -96.2416 266° West 459 528 32,000  Level FlightAware ADS-B
Tue 04:30:59 PM 41.3541 -96.3316 266° West 461 531 32,000  Level FlightAware ADS-B
Tue 04:31:29 PM 41.3490 -96.4173 265° West 463 533 32,000  Level FlightAware ADS-B
Tue 04:32:00 PM 41.3438 -96.5037 265° West 466 536 32,000  Level FlightAware ADS-B
Tue 04:32:31 PM 41.3384 -96.5940 265° West 467 537 32,000  Level FlightAware ADS-B
Tue 04:33:01 PM 41.3331 -96.6799 265° West 468 539 32,000  Level FlightAware ADS-B
Tue 04:33:32 PM 41.3275 -96.7681 265° West 467 537 32,000  Level FlightAware ADS-B
Tue 04:34:02 PM 41.3220 -96.8544 265° West 468 539 32,000  Level FlightAware ADS-B
Tue 04:34:33 PM 41.3164 -96.9425 265° West 467 537 32,000  Level FlightAware ADS-B
Tue 04:35:04 PM 41.3107 -97.0298 265° West 466 536 32,000  Level FlightAware ADS-B
Tue 04:35:35 PM 41.3050 -97.1166 265° West 463 533 32,000  Level FlightAware ADS-B
Tue 04:36:07 PM 41.2988 -97.2083 265° West 461 531 32,000  Level FlightAware ADS-B
Tue 04:36:37 PM 41.2931 -97.2939 265° West 461 531 32,000  Level FlightAware ADS-B
Tue 04:37:08 PM 41.2874 -97.3792 265° West 464 534 32,000  Level FlightAware ADS-B
Tue 04:37:40 PM 41.2812 -97.4703 265° West 463 533 32,000  Level FlightAware ADS-B
Tue 04:38:11 PM 41.2751 -97.5573 265° West 460 529 32,000  Level FlightAware ADS-B
Tue 04:38:41 PM 41.2691 -97.6417 265° West 460 529 32,000  Level FlightAware ADS-B
Tue 04:39:12 PM 41.2630 -97.7281 265° West 459 528 32,000  Level FlightAware ADS-B
Tue 04:39:42 PM 41.2570 -97.8126 265° West 457 526 32,000  Level FlightAware ADS-B
Tue 04:40:12 PM 41.2508 -97.8975 264° West 457 526 32,000  Level FlightAware ADS-B
Tue 04:40:43 PM 41.2444 -97.9844 264° West 457 526 32,000  Level FlightAware ADS-B
Tue 04:41:14 PM 41.2381 -98.0695 264° West 458 527 32,000  Level FlightAware ADS-B
Tue 04:42:00 PM 41.2285 -98.1974 264° West 458 527 32,000  Level FlightAware ADS-B
Tue 04:42:31 PM 41.2219 -98.2839 264° West 458 527 32,000  Level FlightAware ADS-B
Tue 04:43:01 PM 41.2154 -98.3680 264° West 458 527 32,000  Level FlightAware ADS-B
Tue 04:43:31 PM 41.2090 -98.4520 264° West 458 527 32,000  Level FlightAware ADS-B
Tue 04:44:03 PM 41.2021 -98.5413 264° West 457 526 32,000  Level FlightAware ADS-B
Tue 04:44:49 PM 41.1919 -98.6697 264° West 458 527 32,000  Level FlightAware ADS-B
Tue 04:45:20 PM 41.1850 -98.7553 264° West 457 526 32,000  Level FlightAware ADS-B
Tue 04:45:51 PM 41.1780 -98.8416 264° West 457 526 32,000  Level FlightAware ADS-B
Tue 04:46:22 PM 41.1710 -98.9273 264° West 456 525 32,000  Level FlightAware ADS-B
Tue 04:46:53 PM 41.1638 -99.0151 264° West 456 525 32,000  Level FlightAware ADS-B
Tue 04:47:24 PM 41.1568 -99.0994 264° West 455 524 32,000  Level FlightAware ADS-B
Tue 04:47:56 PM 41.1493 -99.1888 264° West 454 522 32,000  Level FlightAware ADS-B
Tue 04:48:28 PM 41.1418 -99.2772 264° West 454 522 32,000  Level FlightAware ADS-B
Tue 04:48:59 PM 41.1346 -99.3620 263° West 455 524 32,000  Level FlightAware ADS-B
Tue 04:49:29 PM 41.1274 -99.4454 263° West 456 525 32,000  Level FlightAware ADS-B
Tue 04:50:00 PM 41.1200 -99.5301 263° West 455 524 32,000  Level FlightAware ADS-B
Tue 04:50:32 PM 41.1121 -99.6202 263° West 453 521 32,000  Level FlightAware ADS-B
Tue 04:51:04 PM 41.1056 -99.6981 263° West 455 524 32,000  Level Denver Center
Tue 04:52:06 PM 41.0914 -99.8564 263° West 455 524 32,000  Level Denver Center
Tue 04:53:08 PM 41.0742 -100.0408 263° West 454 522 32,000  Level Denver Center
Tue 04:54:10 PM 41.0597 -100.1986 263° West 454 522 32,000  Level Denver Center
Tue 04:59:43 PM 40.9685 -101.1340 262° West 452 520 32,000  Level FlightAware ADS-B (EGNT / NCL)
Tue 05:00:27 PM 40.9561 -101.2547 262° West 449 517 32,000  Level FlightAware ADS-B (EGNT / NCL)
Tue 05:01:07 PM 40.9450 -101.3621 262° West 447 514 32,000  Level FlightAware ADS-B (EGNT / NCL)
Tue 05:01:43 PM 40.9349 -101.4597 262° West 444 511 32,000  Level FlightAware ADS-B (EGNT / NCL)
Tue 05:02:21 PM 40.9254 -101.5498 262° West 442 509 32,000  Level FlightAware ADS-B (EGNT / NCL)
Tue 05:03:05 PM 40.9128 -101.6678 262° West 441 507 32,000  Level FlightAware ADS-B (EGNT / NCL)
Tue 05:03:36 PM 40.9030 -101.7601 262° West 442 509 32,000  Level FlightAware ADS-B (EGNT / NCL)
Tue 05:04:10 PM 40.8938 -101.8457 262° West 445 512 32,000  Level FlightAware ADS-B (EGNT / NCL)
Tue 05:04:48 PM 40.8825 -101.9496 262° West 445 512 32,000  Level FlightAware ADS-B (EGNT / NCL)
Tue 05:05:44 PM 40.8670 -102.0911 262° West 444 511 32,000  Level FlightAware ADS-B (EGNT / NCL)
Tue 05:06:21 PM 40.8546 -102.2030 262° West 444 511 32,000  Level FlightAware ADS-B (EGNT / NCL)
Tue 05:07:02 PM 40.8424 -102.3117 262° West 445 512 32,000  Level FlightAware ADS-B (EGNT / NCL)
Tue 05:07:33 PM 40.8330 -102.3958 262° West 445 512 32,000  Level FlightAware ADS-B (EGNT / NCL)
Tue 05:08:14 PM 40.8220 -102.4924 261° West 442 509 32,000  Level FlightAware ADS-B (EGNT / NCL)
Tue 05:09:16 PM 40.8018 -102.6676 261° West 443 510 32,000  Level FlightAware ADS-B (EGNT / NCL)
Tue 05:09:54 PM 40.7898 -102.7712 261° West 444 511 32,000  Level FlightAware ADS-B (EGNT / NCL)
Tue 05:10:24 PM 40.7836 -102.8239 261° West 445 512 32,000  Level FlightAware ADS-B (EGNT / NCL)
Tue 05:10:59 PM 40.7697 -102.9442 261° West 445 512 32,000  Level FlightAware ADS-B (EGNT / NCL)
Tue 05:11:38 PM 40.7596 -103.0295 261° West 448 516 32,000  Level FlightAware ADS-B
Tue 05:12:16 PM 40.7452 -103.1496 261° West 446 513 32,000  Level FlightAware ADS-B (EGNT / NCL)
Tue 05:12:50 PM 40.7340 -103.2412 261° West 447 514 32,000  Level FlightAware ADS-B (EGNT / NCL)
Tue 05:13:20 PM 40.7250 -103.3152 261° West 446 513 32,000  Level FlightAware ADS-B (EGNT / NCL)
Tue 05:13:52 PM 40.7137 -103.4080 261° West 440 506 32,000  Level FlightAware ADS-B (EGNT / NCL)
Tue 05:14:30 PM 40.7017 -103.5065 261° West 437 503 32,000  Level FlightAware ADS-B
Tue 05:15:03 PM 40.6909 -103.5938 261° West 432 497 32,000  Level FlightAware ADS-B (EGNT / NCL)
Tue 05:15:34 PM 40.6813 -103.6720 261° West 432 497 32,000  Level FlightAware ADS-B (EGNT / NCL)
Tue 05:16:08 PM 40.6702 -103.7609 261° West 429 494 32,000  Level FlightAware ADS-B (EGNT / NCL)
Tue 05:16:38 PM 40.6613 -103.8312 261° West 430 495 32,000  Level FlightAware ADS-B (EGNT / NCL)
Tue 05:17:12 PM 40.6493 -103.9255 261° West 434 499 32,000  Level FlightAware ADS-B
Tue 05:18:02 PM 40.6336 -104.0485 260° West 432 497 32,000  Level FlightAware ADS-B (EGNT / NCL)
Tue 05:18:33 PM 40.6225 -104.1342 260° West 429 494 32,000 295 Level FlightAware ADS-B (EGNT / NCL)
Tue 05:19:03 PM 40.6158 -104.2096 272° West 430 495 32,300 794 Climbing FlightAware ADS-B (EHAM / AMS)
Tue 05:19:41 PM 40.6190 -104.3128 273° West 434 499 32,900 880 Climbing FlightAware ADS-B
Tue 05:20:18 PM 40.6224 -104.4124 272° West 437 503 33,400 783 Climbing FlightAware ADS-B (EHAM / AMS)
Tue 05:20:50 PM 40.6247 -104.4963 272° West 440 506 33,800 554 Climbing FlightAware ADS-B (EHAM / AMS)
Tue 05:21:23 PM 40.6276 -104.5794 273° West 444 511 34,000 185 Climbing FlightAware ADS-B (EHAM / AMS)
Tue 05:21:55 PM 40.6303 -104.6664 272° West 436 502 34,000  Level FlightAware ADS-B (EGNT / NCL)
Tue 05:22:23 PM 40.6327 -104.7418 272° West 427 491 34,000  Level FlightAware ADS-B (EHAM / AMS)
Tue 05:22:58 PM 40.6357 -104.8265 273° West 421 484 34,000  Level FlightAware ADS-B (EGNT / NCL)
Tue 05:23:32 PM 40.6379 -104.9185 269° West 425 489 34,000  Level FlightAware ADS-B (EGNT / NCL)
Tue 05:24:17 PM 40.6350 -105.0305 268° West 424 488 34,000  Level FlightAware ADS-B (EGNT / NCL)
Tue 05:24:56 PM 40.6314 -105.1360 264° West 426 490 34,000  Level FlightAware ADS-B (EGNT / NCL)
Tue 05:25:45 PM 40.6143 -105.2604 259° West 428 493 34,000  Level FlightAware ADS-B (EHAM / AMS)
Tue 05:26:22 PM 40.6011 -105.3483 259° West 422 486 34,000  Level FlightAware ADS-B (EGNT / NCL)
Tue 05:27:03 PM 40.5850 -105.4565 259° West 426 490 34,000  Level FlightAware ADS-B (EGNT / NCL)
Tue 05:27:35 PM 40.5731 -105.5380 259° West 425 489 34,000  Level FlightAware ADS-B (EGNT / NCL)
Tue 05:28:06 PM 40.5614 -105.6157 259° West 426 490 34,000  Level FlightAware ADS-B (EGNT / NCL)
Tue 05:28:44 PM 40.5474 -105.7079 259° West 434 499 34,000  Level FlightAware ADS-B (EGNT / NCL)
Tue 05:29:15 PM 40.5346 -105.7921 259° West 420 483 34,000  Level FlightAware ADS-B (EGNT / NCL)
Tue 05:29:55 PM 40.5207 -105.8839 259° West 432 497 34,000  Level FlightAware ADS-B (EGNT / NCL)
Tue 05:30:42 PM 40.5014 -106.0093 258° West 414 476 34,000  Level FlightAware ADS-B
Tue 05:31:16 PM 40.4891 -106.0882 259° West 413 475 34,000  Level FlightAware ADS-B (EGNT / NCL)
Tue 05:32:01 PM 40.4708 -106.2069 259° West 413 475 34,000  Level FlightAware ADS-B (EHAM / AMS)
Tue 05:32:37 PM 40.4579 -106.2903 258° West 420 483 34,000  Level FlightAware ADS-B (EGNT / NCL)
Tue 05:33:17 PM 40.4417 -106.3938 258° West 423 487 34,000  Level FlightAware ADS-B (EGNT / NCL)
Tue 05:33:47 PM 40.4298 -106.4689 258° West 421 484 34,000  Level FlightAware ADS-B (EGNT / NCL)
Tue 05:34:17 PM 40.4179 -106.5442 258° West 423 487 34,000  Level FlightAware ADS-B (EGNT / NCL)
Tue 05:35:05 PM 40.3987 -106.6649 258° West 421 484 34,000  Level FlightAware ADS-B (EHAM / AMS)
Tue 05:35:35 PM 40.3865 -106.7394 258° West 424 488 34,000  Level FlightAware ADS-B (EGNT / NCL)
Tue 05:36:08 PM 40.3731 -106.8229 258° West 429 494 34,000  Level FlightAware ADS-B (EGNT / NCL)
Tue 05:36:39 PM 40.3605 -106.9016 258° West 433 498 34,000  Level FlightAware ADS-B (EGNT / NCL)
Tue 05:37:31 PM 40.3387 -107.0353 258° West 431 496 34,000  Level FlightAware ADS-B (EHAM / AMS)
Tue 05:38:12 PM 40.3214 -107.1406 258° West 433 498 34,000  Level FlightAware ADS-B (EGNT / NCL)
Tue 05:38:46 PM 40.3222 -107.1357 258° West 432 497 34,000  Level FlightAware ADS-B (EHAM / AMS)
Tue 05:39:24 PM 40.2914 -107.3215 258° West 431 496 34,000  Level FlightAware ADS-B
Tue 05:39:54 PM 40.2790 -107.3964 258° West 423 487 34,000  Level FlightAware ADS-B
Tue 05:40:28 PM 40.2643 -107.4838 258° West 419 482 34,000  Level FlightAware ADS-B
Tue 05:40:58 PM 40.2524 -107.5553 258° West 421 484 34,000  Level FlightAware ADS-B
Tue 05:41:32 PM 40.2381 -107.6410 257° West 423 487 34,000  Level FlightAware ADS-B
Tue 05:42:02 PM 40.2255 -107.7148 258° West 420 483 34,000  Level FlightAware ADS-B
Tue 05:42:39 PM 40.2098 -107.8073 258° West 419 482 34,000  Level FlightAware ADS-B
Tue 05:43:29 PM 40.1883 -107.9312 257° West 422 486 34,000  Level FlightAware ADS-B
Tue 05:43:59 PM 40.1757 -108.0048 257° West 424 488 34,000  Level FlightAware ADS-B
Tue 05:44:32 PM 40.1612 -108.0884 257° West 425 489 34,000  Level FlightAware ADS-B
Tue 05:45:02 PM 40.1480 -108.1627 257° West 428 493 34,000  Level FlightAware ADS-B
Tue 05:45:32 PM 40.1365 -108.2376 262° West 427 491 34,000  Level FlightAware ADS-B
Tue 05:46:04 PM 40.1275 -108.3204 262° West 428 493 34,000  Level FlightAware ADS-B (KGUC)
Tue 05:46:41 PM 40.1199 -108.4133 264° West 422 486 34,000  Level FlightAware ADS-B
Tue 05:47:11 PM 40.1158 -108.4899 267° West 422 486 34,000  Level FlightAware ADS-B
Tue 05:47:38 PM 40.1123 -108.5559 266° West 412 474 34,000  Level FlightAware ADS-B (KGUC)
Tue 05:48:11 PM 40.1077 -108.6402 266° West 409 471 34,000  Level FlightAware ADS-B
Tue 05:48:51 PM 40.1069 -108.7330 274° West 410 472 34,000  Level FlightAware ADS-B
Tue 05:49:21 PM 40.1118 -108.8123 275° West 409 471 34,000  Level FlightAware ADS-B (KGUC)
Tue 05:49:53 PM 40.1169 -108.8873 275° West 409 471 34,000  Level FlightAware ADS-B
Tue 05:50:23 PM 40.1218 -108.9595 275° West 412 474 34,000  Level FlightAware ADS-B
Tue 05:50:29 PM 40.1232 -108.9804 275° West 412 474 34,000  Level FlightAware ADS-B (KGUC)
Tue 05:51:04 PM 40.1285 -109.0633 275° West 415 478 34,000  Level FlightAware ADS-B
Tue 05:51:36 PM 40.1348 -109.1448 276° West 419 482 34,000  Level FlightAware ADS-B
Tue 05:52:12 PM 40.1419 -109.2379 274° West 425 489 34,000  Level FlightAware ADS-B
Tue 05:52:47 PM 40.1436 -109.3262 263° West 420 483 34,000  Level FlightAware ADS-B
Tue 05:53:18 PM 40.1360 -109.4046 263° West 422 486 34,000  Level FlightAware ADS-B
Tue 05:53:51 PM 40.1299 -109.4714 263° West 424 488 34,000  Level FlightAware ADS-B
Tue 05:54:22 PM 40.1222 -109.5319 258° West 421 484 34,000  Level FlightAware ADS-B
Tue 05:54:53 PM 40.1040 -109.6406 258° West 419 482 34,000  Level FlightAware ADS-B
Tue 05:55:26 PM 40.0900 -109.7241 258° West 425 489 34,000  Level FlightAware ADS-B
Tue 05:56:00 PM 40.0756 -109.8055 254° West 424 488 34,000  Level FlightAware ADS-B
Tue 05:56:30 PM 40.0566 -109.8782 250° West 419 482 34,000  Level FlightAware ADS-B
Tue 05:57:10 PM 40.0319 -109.9673 250° West 418 481 34,000  Level FlightAware ADS-B
Tue 05:57:56 PM 39.9994 -110.0854 250° West 418 481 34,000  Level FlightAware ADS-B
Tue 05:58:31 PM 39.9770 -110.1664 250° West 420 483 34,000  Level FlightAware ADS-B
Tue 05:59:23 PM 39.9458 -110.2799 250° West 416 479 34,000  Level FlightAware ADS-B (KGUC)
Tue 05:59:53 PM 39.9234 -110.3605 250° West 419 482 34,000  Level FlightAware ADS-B (KGUC)
Tue 06:00:23 PM 39.9062 -110.4223 254° West 415 478 34,000  Level FlightAware ADS-B (KGUC)
Tue 06:00:30 PM 39.9007 -110.4485 259° West 414 476 34,000  Level FlightAware ADS-B (KGUC)
Tue 06:01:10 PM 39.8881 -110.5450 261° West 415 478 34,000  Level FlightAware ADS-B
Tue 06:01:40 PM 39.8791 -110.6185 261° West 418 481 34,000  Level FlightAware ADS-B
Tue 06:02:13 PM 39.8696 -110.7016 261° West 413 475 34,000  Level FlightAware ADS-B
Tue 06:02:50 PM 39.8586 -110.7920 261° West 416 479 34,000  Level FlightAware ADS-B
Tue 06:03:29 PM 39.8459 -110.8883 259° West 413 475 34,000  Level FlightAware ADS-B
Tue 06:04:00 PM 39.8341 -110.9630 258° West 414 476 34,000  Level FlightAware ADS-B
Tue 06:04:34 PM 39.8180 -111.0461 256° West 417 480 34,000  Level FlightAware ADS-B
Tue 06:05:04 PM 39.8030 -111.1143 251° West 412 474 34,000  Level FlightAware ADS-B
Tue 06:05:34 PM 39.7819 -111.1853 245° Southwest 414 476 34,000  Level FlightAware ADS-B
Tue 06:06:15 PM 39.7480 -111.2785 245° Southwest 415 478 34,000  Level FlightAware ADS-B
Tue 06:06:55 PM 39.7155 -111.3698 246° West 413 475 34,000  Level FlightAware ADS-B
Tue 06:07:29 PM 39.6911 -111.4386 245° Southwest 406 467 34,000  Level FlightAware ADS-B
Tue 06:08:00 PM 39.6658 -111.5096 245° Southwest 413 475 34,000  Level FlightAware ADS-B
Tue 06:08:30 PM 39.6532 -111.5452 245° Southwest 415 478 34,000  Level FlightAware ADS-B
Tue 06:09:03 PM 39.6139 -111.6543 245° Southwest 417 480 34,000  Level FlightAware ADS-B
Tue 06:09:33 PM 39.5904 -111.7191 245° Southwest 418 481 34,000  Level FlightAware ADS-B
Tue 06:10:07 PM 39.5612 -111.7995 245° Southwest 417 480 34,000  Level FlightAware ADS-B
Tue 06:10:37 PM 39.5366 -111.8679 245° Southwest 418 481 34,000  Level FlightAware ADS-B
Tue 06:11:09 PM 39.5100 -111.9406 245° Southwest 424 488 34,000  Level FlightAware ADS-B
Tue 06:11:40 PM 39.4842 -112.0110 245° Southwest 428 493 34,000  Level FlightAware ADS-B
Tue 06:11:51 PM 39.4740 -112.0388 246° West 426 490 34,000  Level FlightAware ADS-B (KBTF)
Tue 06:12:22 PM 39.4487 -112.1080 245° Southwest 429 494 34,000  Level FlightAware ADS-B
Tue 06:12:33 PM 39.4390 -112.1346 245° Southwest 428 493 34,000  Level FlightAware ADS-B
Tue 06:12:53 PM 39.4218 -112.1812 245° Southwest 427 491 34,000  Level FlightAware ADS-B
Tue 06:13:12 PM 39.4068 -112.2221 245° Southwest 427 491 34,000  Level FlightAware ADS-B
Tue 06:13:42 PM 39.3802 -112.2944 246° West 425 489 34,000  Level FlightAware ADS-B
Tue 06:14:17 PM 39.3502 -112.3754 245° Southwest 426 490 34,000  Level FlightAware ADS-B
Tue 06:14:50 PM 39.3243 -112.4478 247° West 422 486 34,000  Level FlightAware ADS-B
Tue 06:15:20 PM 39.3045 -112.5187 254° West 417 480 34,000  Level FlightAware ADS-B
Tue 06:15:53 PM 39.2913 -112.5965 261° West 421 484 34,000  Level FlightAware ADS-B
Tue 06:16:12 PM 39.2856 -112.6496 264° West 422 486 34,000  Level FlightAware ADS-B (KBTF)
Tue 06:16:34 PM 39.2801 -112.7025 263° West 422 486 34,000  Level FlightAware ADS-B (KBTF)
Tue 06:16:45 PM 39.2772 -112.7300 264° West 422 486 34,000  Level FlightAware ADS-B
Tue 06:16:53 PM 39.2749 -112.7515 262° West 422 486 34,000  Level FlightAware ADS-B
Tue 06:17:30 PM 39.2657 -112.8362 262° West 422 486 34,000  Level FlightAware ADS-B
Tue 06:17:40 PM 39.2623 -112.8669 260° West 424 488 34,000  Level FlightAware ADS-B
Tue 06:17:59 PM 39.2611 -112.8745 257° West 425 489 34,000  Level FlightAware ADS-B
Tue 06:18:13 PM 39.2439 -112.9455 254° West 425 489 34,000  Level FlightAware ADS-B (KBTF)
Tue 06:18:44 PM 39.2328 -113.0226 263° West 424 488 34,000  Level FlightAware ADS-B
Tue 06:18:55 PM 39.2304 -113.0504 265° West 424 488 34,000  Level FlightAware ADS-B (KBTF)
Tue 06:19:14 PM 39.2265 -113.1002 266° West 427 491 34,000  Level FlightAware ADS-B (KBTF)
Tue 06:19:48 PM 39.2198 -113.1849 264° West 425 489 34,000  Level FlightAware ADS-B
Tue 06:20:18 PM 39.2119 -113.2590 256° West 422 486 34,000  Level FlightAware ADS-B
Tue 06:20:48 PM 39.1936 -113.3299 251° West 417 480 34,000  Level FlightAware ADS-B
Tue 06:20:52 PM 39.1909 -113.3399 252° West 413 475 34,000  Level FlightAware ADS-B
Tue 06:21:25 PM 39.1705 -113.4166 251° West 410 472 34,000  Level FlightAware ADS-B
Tue 06:22:18 PM 39.1383 -113.5390 251° West 415 478 34,000  Level FlightAware ADS-B
Tue 06:22:58 PM 39.1140 -113.6312 251° West 419 482 34,000  Level FlightAware ADS-B
Tue 06:23:35 PM 39.0906 -113.7208 251° West 420 483 34,000  Level FlightAware ADS-B
Tue 06:24:15 PM 39.0656 -113.8147 251° West 421 484 34,000  Level FlightAware ADS-B
Tue 06:24:48 PM 39.0444 -113.8933 251° West 417 480 34,000  Level FlightAware ADS-B
Tue 06:25:18 PM 39.0261 -113.9617 251° West 418 481 34,000  Level FlightAware ADS-B
Tue 06:25:48 PM 39.0074 -114.0327 253° West 419 482 34,000  Level FlightAware ADS-B
Tue 06:26:29 PM 38.9920 -114.0983 253° West 421 484 34,000  Level FlightAware ADS-B
Tue 06:27:26 PM 38.9542 -114.2575 253° West 423 487 34,000  Level Salt Lake Center
Tue 06:28:28 PM 38.9272 -114.4031 257° West 423 487 34,000  Level Salt Lake Center
Tue 06:29:30 PM 38.9058 -114.5486 259° West 421 484 34,000  Level Salt Lake Center
Tue 06:30:32 PM 38.8844 -114.6936 259° West 419 482 34,000  Level Salt Lake Center
Tue 06:31:33 PM 38.8622 -114.8428 259° West 424 488 34,000  Level Salt Lake Center
Tue 06:32:35 PM 38.8347 -115.0219 259° West 425 489 34,000  Level Salt Lake Center
Tue 06:33:37 PM 38.8142 -115.1692 260° West 425 489 34,000  Level Salt Lake Center
Tue 06:34:39 PM 38.7906 -115.3167 258° West 424 488 34,000  Level Salt Lake Center
Tue 06:35:41 PM 38.7706 -115.4539 259° West 429 494 34,000  Level Salt Lake Center
Tue 06:36:43 PM 38.7439 -115.6319 259° West 429 494 34,000  Level Salt Lake Center
Tue 06:37:45 PM 38.7283 -115.7836 263° West 429 494 34,000  Level Salt Lake Center
Tue 06:38:46 PM 38.7186 -115.9392 265° West 434 499 34,000  Level Salt Lake Center
Tue 06:39:48 PM 38.7083 -116.0944 265° West 435 501 34,000  Level Salt Lake Center
Tue 06:40:50 PM 38.6975 -116.2514 265° West 438 504 34,000  Level Salt Lake Center
Tue 06:41:55 PM 38.6856 -116.4428 265° West 443 510 34,000  Level Oakland Center
Tue 06:42:56 PM 38.6750 -116.5997 265° West 444 511 34,000  Level Oakland Center
Tue 06:43:56 PM 38.6631 -116.7539 264° West 444 511 34,000  Level Salt Lake Center
Tue 06:44:58 PM 38.6522 -116.9108 265° West 445 512 34,000  Level Salt Lake Center
Tue 06:46:01 PM 38.6408 -117.0708 265° West 446 513 34,000  Level Oakland Center
Tue 06:47:02 PM 38.6294 -117.2261 265° West 445 512 34,000  Level Oakland Center
Tue 06:48:04 PM 38.6147 -117.4153 264° West 450 518 34,000  Level Oakland Center
Tue 06:49:05 PM 38.6022 -117.5750 264° West 453 521 34,000  Level Oakland Center
Tue 06:50:06 PM 38.5894 -117.7347 264° West 454 522 34,000  Level Oakland Center
Tue 06:51:08 PM 38.5767 -117.8942 264° West 454 522 34,000 -244 Level Oakland Center
Tue 06:52:09 PM 38.5686 -118.0539 266° West 454 522 33,500 -683 Descending Oakland Center
Tue 06:53:11 PM 38.5819 -118.2031 277° West 453 521 32,600 -1,732 Descending Oakland Center
Tue 06:58:44 PM 38.6929 -119.0974 286° West 408 470 22,100 -1,752 Descending FlightAware ADS-B
Tue 06:59:14 PM 38.7077 -119.1675 281° West 408 470 22,000 -100 Descending FlightAware ADS-B
Tue 06:59:44 PM 38.7166 -119.2378 279° West 410 472 22,000  Level FlightAware ADS-B
Tue 07:02:00 PM 38.7589 -119.5610 282° West 412 474 22,000 -136 Level FlightAware ADS-B
Tue 07:03:25 PM 38.7722 -119.7408 282° West 411 473 21,500 -939 Descending Oakland Center
Tue 07:04:27 PM 38.7767 -119.8922 272° West 415 478 19,700 -2,488 Descending Oakland Center
Tue 07:05:28 PM 38.7803 -120.0681 272° West 410 472 16,400 -1,854 Descending Oakland Center
Tue 07:06:30 PM 38.7800 -120.2133 270° West 410 472 15,900 -1,659 Descending Oakland Center
Tue 07:07:31 PM 38.7644 -120.3567 262° West 409 471 13,000 -2,683 Descending Oakland Center
Tue 07:08:33 PM 38.7503 -120.4906 262° West 389 448 10,400 -1,902 Descending Oakland Center
Tue 07:09:34 PM 38.7400 -120.6008 263° West 319 367 9,100 -1,574 Descending Oakland Center
Tue 07:10:35 PM 38.7286 -120.7014 262° West 293 337 7,200 -1,171 Descending Oakland Center
Tue 07:11:37 PM 38.7289 -120.7964 270° West 271 312 6,700 -488 Descending Oakland Center
Tue 07:12:38 PM 38.7392 -120.8797 279° West 246 283 6,200 -878 Descending Oakland Center
Tue 07:13:40 PM 38.7411 -120.9703 272° West 226 260 4,900 -1,024 Descending Oakland Center
Tue 07:14:41 PM 38.7072 -121.0272 233° Southwest 207 238 4,100 -927 Descending Oakland Center
Tue 07:15:43 PM 38.6772 -121.0831 235° Southwest 197 227 3,000 -829 Descending Oakland Center
Tue 07:16:44 PM 38.6447 -121.1386 233° Southwest 197 227 2,400 -639 Descending Oakland Center
Tue 07:17:45 PM 38.6147 -121.1917 234° Southwest 192 221 1,700 -732 Descending Oakland Center
Tue 07:18:47 PM 38.5914 -121.2381 237° Southwest 173 199 900 -732 Descending Oakland Center
Tue 07:19:48 PM 38.5644 -121.2775 229° Southwest 151 174 200 3,000 Descending Oakland Center
Tue 07:20:49 PM 38.5500 -121.3075 238° Southwest 111 128 7,000 3,317 Climbing Oakland Center
Tue 07:21:51 PM 38.5572 -121.3122 333° Northwest 95 109 7,000  Level Oakland Center

Login

Don't have an account? Register now (free) for customized features, flight alerts, and more!